sensor_id;sensor_type;location;lat;lon;timestamp;P1;durP1;ratioP1;P2;durP2;ratioP2
15506;SDS011;7855;52.210;5.982;2022-09-09T00:02:38;10;;;3;;
15506;SDS011;7855;52.210;5.982;2022-09-09T00:02:38;9;;;3;;
15506;SDS011;7855;52.210;5.982;2022-09-09T00:04:40;13;;;4;;
15506;SDS011;7855;52.210;5.982;2022-09-09T00:06:57;10;;;2;;
15506;SDS011;7855;52.210;5.982;2022-09-09T00:09:10;6;;;1;;
15506;SDS011;7855;52.210;5.982;2022-09-09T00:11:24;8;;;2;;
15506;SDS011;7855;52.210;5.982;2022-09-09T00:13:39;8;;;2;;
15506;SDS011;7855;52.210;5.982;2022-09-09T00:15:54;7;;;2;;
15506;SDS011;7855;52.210;5.982;2022-09-09T00:18:09;6;;;1;;
15506;SDS011;7855;52.210;5.982;2022-09-09T00:20:23;7;;;1;;
15506;SDS011;7855;52.210;5.982;2022-09-09T00:22:35;6;;;1;;
15506;SDS011;7855;52.210;5.982;2022-09-09T00:24:51;7;;;1;;
15506;SDS011;7855;52.210;5.982;2022-09-09T00:27:06;8;;;2;;
15506;SDS011;7855;52.210;5.982;2022-09-09T00:29:20;6;;;1;;
15506;SDS011;7855;52.210;5.982;2022-09-09T00:31:33;7;;;2;;
15506;SDS011;7855;52.210;5.982;2022-09-09T00:33:48;10;;;2;;
15506;SDS011;7855;52.210;5.982;2022-09-09T00:36:04;14;;;3;;
15506;SDS011;7855;52.210;5.982;2022-09-09T00:38:18;8;;;2;;
15506;SDS011;7855;52.210;5.982;2022-09-09T00:40:32;8;;;2;;
15506;SDS011;7855;52.210;5.982;2022-09-09T00:42:45;8;;;2;;
15506;SDS011;7855;52.210;5.982;2022-09-09T00:45:01;8;;;3;;
15506;SDS011;7855;52.210;5.982;2022-09-09T00:47:17;8;;;3;;
15506;SDS011;7855;52.210;5.982;2022-09-09T00:49:33;11;;;3;;
15506;SDS011;7855;52.210;5.982;2022-09-09T00:51:45;8;;;3;;
15506;SDS011;7855;52.210;5.982;2022-09-09T00:54:02;9;;;2;;
15506;SDS011;7855;52.210;5.982;2022-09-09T00:56:13;11;;;2;;
15506;SDS011;7855;52.210;5.982;2022-09-09T00:58:27;8;;;3;;
15506;SDS011;7855;52.210;5.982;2022-09-09T01:00:42;8;;;3;;
15506;SDS011;7855;52.210;5.982;2022-09-09T01:03:00;10;;;3;;
15506;SDS011;7855;52.210;5.982;2022-09-09T01:05:11;12;;;2;;
15506;SDS011;7855;52.210;5.982;2022-09-09T01:07:24;8;;;3;;
15506;SDS011;7855;52.210;5.982;2022-09-09T01:09:42;8;;;3;;
15506;SDS011;7855;52.210;5.982;2022-09-09T01:11:55;7;;;2;;
15506;SDS011;7855;52.210;5.982;2022-09-09T01:14:10;13;;;3;;
15506;SDS011;7855;52.210;5.982;2022-09-09T01:16:22;9;;;3;;
15506;SDS011;7855;52.210;5.982;2022-09-09T01:18:37;9;;;3;;
15506;SDS011;7855;52.210;5.982;2022-09-09T01:20:53;11;;;4;;
15506;SDS011;7855;52.210;5.982;2022-09-09T01:23:11;11;;;3;;
15506;SDS011;7855;52.210;5.982;2022-09-09T01:25:22;8;;;3;;
15506;SDS011;7855;52.210;5.982;2022-09-09T01:27:34;10;;;3;;
15506;SDS011;7855;52.210;5.982;2022-09-09T01:29:48;9;;;3;;
15506;SDS011;7855;52.210;5.982;2022-09-09T01:32:37;17;;;3;;
15506;SDS011;7855;52.210;5.982;2022-09-09T01:34:17;18;;;4;;
15506;SDS011;7855;52.210;5.982;2022-09-09T01:36:32;9;;;4;;
15506;SDS011;7855;52.210;5.982;2022-09-09T01:38:46;10;;;4;;
15506;SDS011;7855;52.210;5.982;2022-09-09T01:41:00;11;;;3;;
15506;SDS011;7855;52.210;5.982;2022-09-09T01:43:15;7;;;3;;
15506;SDS011;7855;52.210;5.982;2022-09-09T01:45:29;10;;;4;;
15506;SDS011;7855;52.210;5.982;2022-09-09T01:47:44;11;;;5;;
15506;SDS011;7855;52.210;5.982;2022-09-09T01:49:58;10;;;3;;
15506;SDS011;7855;52.210;5.982;2022-09-09T01:52:12;11;;;4;;
15506;SDS011;7855;52.210;5.982;2022-09-09T01:54:27;13;;;4;;
15506;SDS011;7855;52.210;5.982;2022-09-09T01:56:43;10;;;3;;
15506;SDS011;7855;52.210;5.982;2022-09-09T01:58:59;13;;;4;;
15506;SDS011;7855;52.210;5.982;2022-09-09T02:01:15;11;;;4;;
15506;SDS011;7855;52.210;5.982;2022-09-09T02:03:25;9;;;3;;
15506;SDS011;7855;52.210;5.982;2022-09-09T02:05:40;10;;;3;;
15506;SDS011;7855;52.210;5.982;2022-09-09T02:07:55;10;;;3;;
15506;SDS011;7855;52.210;5.982;2022-09-09T02:10:09;10;;;3;;
15506;SDS011;7855;52.210;5.982;2022-09-09T02:12:22;14;;;3;;
15506;SDS011;7855;52.210;5.982;2022-09-09T02:14:38;13;;;3;;
15506;SDS011;7855;52.210;5.982;2022-09-09T02:16:52;9;;;3;;
15506;SDS011;7855;52.210;5.982;2022-09-09T02:19:07;9;;;2;;
15506;SDS011;7855;52.210;5.982;2022-09-09T02:21:20;10;;;2;;
15506;SDS011;7855;52.210;5.982;2022-09-09T02:23:35;8;;;3;;
15506;SDS011;7855;52.210;5.982;2022-09-09T02:25:49;9;;;3;;
15506;SDS011;7855;52.210;5.982;2022-09-09T02:28:04;12;;;3;;
15506;SDS011;7855;52.210;5.982;2022-09-09T02:30:18;9;;;3;;
15506;SDS011;7855;52.210;5.982;2022-09-09T02:32:33;11;;;3;;
15506;SDS011;7855;52.210;5.982;2022-09-09T02:34:47;9;;;3;;
15506;SDS011;7855;52.210;5.982;2022-09-09T02:37:02;7;;;2;;
15506;SDS011;7855;52.210;5.982;2022-09-09T02:39:16;18;;;3;;
15506;SDS011;7855;52.210;5.982;2022-09-09T02:41:31;11;;;3;;
15506;SDS011;7855;52.210;5.982;2022-09-09T02:43:44;9;;;2;;
15506;SDS011;7855;52.210;5.982;2022-09-09T02:46:02;9;;;3;;
15506;SDS011;7855;52.210;5.982;2022-09-09T02:48:14;10;;;3;;
15506;SDS011;7855;52.210;5.982;2022-09-09T02:50:29;9;;;4;;
15506;SDS011;7855;52.210;5.982;2022-09-09T02:52:45;9;;;3;;
15506;SDS011;7855;52.210;5.982;2022-09-09T02:54:58;7;;;3;;
15506;SDS011;7855;52.210;5.982;2022-09-09T02:57:12;10;;;4;;
15506;SDS011;7855;52.210;5.982;2022-09-09T02:59:26;7;;;2;;
15506;SDS011;7855;52.210;5.982;2022-09-09T03:01:40;11;;;3;;
15506;SDS011;7855;52.210;5.982;2022-09-09T03:03:54;9;;;3;;
15506;SDS011;7855;52.210;5.982;2022-09-09T03:06:09;11;;;3;;
15506;SDS011;7855;52.210;5.982;2022-09-09T03:08:24;11;;;3;;
15506;SDS011;7855;52.210;5.982;2022-09-09T03:10:38;12;;;3;;
15506;SDS011;7855;52.210;5.982;2022-09-09T03:12:52;10;;;3;;
15506;SDS011;7855;52.210;5.982;2022-09-09T03:15:07;11;;;4;;
15506;SDS011;7855;52.210;5.982;2022-09-09T03:17:21;22;;;5;;
15506;SDS011;7855;52.210;5.982;2022-09-09T03:19:36;9;;;3;;
15506;SDS011;7855;52.210;5.982;2022-09-09T03:21:50;12;;;3;;
15506;SDS011;7855;52.210;5.982;2022-09-09T03:24:05;20;;;4;;
15506;SDS011;7855;52.210;5.982;2022-09-09T03:26:20;11;;;4;;
15506;SDS011;7855;52.210;5.982;2022-09-09T03:28:33;12;;;4;;
15506;SDS011;7855;52.210;5.982;2022-09-09T03:30:48;13;;;3;;
15506;SDS011;7855;52.210;5.982;2022-09-09T03:33:05;10;;;3;;
15506;SDS011;7855;52.210;5.982;2022-09-09T03:35:17;10;;;4;;
15506;SDS011;7855;52.210;5.982;2022-09-09T03:37:32;15;;;4;;
15506;SDS011;7855;52.210;5.982;2022-09-09T03:39:46;9;;;4;;
15506;SDS011;7855;52.210;5.982;2022-09-09T03:42:00;9;;;4;;
15506;SDS011;7855;52.210;5.982;2022-09-09T03:44:15;14;;;4;;
15506;SDS011;7855;52.210;5.982;2022-09-09T03:46:29;13;;;5;;
15506;SDS011;7855;52.210;5.982;2022-09-09T03:48:44;12;;;5;;
15506;SDS011;7855;52.210;5.982;2022-09-09T03:50:57;15;;;5;;
15506;SDS011;7855;52.210;5.982;2022-09-09T03:53:12;11;;;4;;
15506;SDS011;7855;52.210;5.982;2022-09-09T03:55:26;10;;;4;;
15506;SDS011;7855;52.210;5.982;2022-09-09T03:57:41;12;;;5;;
15506;SDS011;7855;52.210;5.982;2022-09-09T03:59:55;11;;;5;;
15506;SDS011;7855;52.210;5.982;2022-09-09T04:02:10;12;;;5;;
15506;SDS011;7855;52.210;5.982;2022-09-09T04:04:24;10;;;4;;
15506;SDS011;7855;52.210;5.982;2022-09-09T04:06:38;10;;;5;;
15506;SDS011;7855;52.210;5.982;2022-09-09T04:08:53;11;;;5;;
15506;SDS011;7855;52.210;5.982;2022-09-09T04:11:06;15;;;6;;
15506;SDS011;7855;52.210;5.982;2022-09-09T04:13:21;10;;;4;;
15506;SDS011;7855;52.210;5.982;2022-09-09T04:15:35;12;;;5;;
15506;SDS011;7855;52.210;5.982;2022-09-09T04:17:50;16;;;6;;
15506;SDS011;7855;52.210;5.982;2022-09-09T04:20:05;12;;;5;;
15506;SDS011;7855;52.210;5.982;2022-09-09T04:22:19;14;;;5;;
15506;SDS011;7855;52.210;5.982;2022-09-09T04:24:33;19;;;5;;
15506;SDS011;7855;52.210;5.982;2022-09-09T04:26:48;14;;;5;;
15506;SDS011;7855;52.210;5.982;2022-09-09T04:29:03;17;;;7;;
15506;SDS011;7855;52.210;5.982;2022-09-09T04:31:17;18;;;6;;
15506;SDS011;7855;52.210;5.982;2022-09-09T04:33:30;15;;;6;;
15506;SDS011;7855;52.210;5.982;2022-09-09T04:35:46;13;;;6;;
15506;SDS011;7855;52.210;5.982;2022-09-09T04:38:00;19;;;7;;
15506;SDS011;7855;52.210;5.982;2022-09-09T04:40:14;15;;;6;;
15506;SDS011;7855;52.210;5.982;2022-09-09T04:42:28;13;;;5;;
15506;SDS011;7855;52.210;5.982;2022-09-09T04:44:43;21;;;7;;
15506;SDS011;7855;52.210;5.982;2022-09-09T04:46:57;18;;;6;;
15506;SDS011;7855;52.210;5.982;2022-09-09T04:49:12;15;;;7;;
15506;SDS011;7855;52.210;5.982;2022-09-09T04:51:26;22;;;7;;
15506;SDS011;7855;52.210;5.982;2022-09-09T04:53:41;13;;;6;;
15506;SDS011;7855;52.210;5.982;2022-09-09T04:56:00;13;;;6;;
15506;SDS011;7855;52.210;5.982;2022-09-09T04:58:09;17;;;7;;
15506;SDS011;7855;52.210;5.982;2022-09-09T05:00:24;14;;;7;;
15506;SDS011;7855;52.210;5.982;2022-09-09T05:02:39;12;;;6;;
15506;SDS011;7855;52.210;5.982;2022-09-09T05:04:53;17;;;7;;
15506;SDS011;7855;52.210;5.982;2022-09-09T05:07:08;14;;;7;;
15506;SDS011;7855;52.210;5.982;2022-09-09T05:09:22;14;;;7;;
15506;SDS011;7855;52.210;5.982;2022-09-09T05:11:36;14;;;7;;
15506;SDS011;7855;52.210;5.982;2022-09-09T05:13:51;14;;;7;;
15506;SDS011;7855;52.210;5.982;2022-09-09T05:16:05;15;;;7;;
15506;SDS011;7855;52.210;5.982;2022-09-09T05:18:20;14;;;7;;
15506;SDS011;7855;52.210;5.982;2022-09-09T05:20:34;11;;;6;;
15506;SDS011;7855;52.210;5.982;2022-09-09T05:22:52;16;;;7;;
15506;SDS011;7855;52.210;5.982;2022-09-09T05:25:03;15;;;7;;
15506;SDS011;7855;52.210;5.982;2022-09-09T05:27:18;18;;;7;;
15506;SDS011;7855;52.210;5.982;2022-09-09T05:29:32;15;;;6;;
15506;SDS011;7855;52.210;5.982;2022-09-09T05:31:46;16;;;8;;
15506;SDS011;7855;52.210;5.982;2022-09-09T05:34:01;21;;;8;;
15506;SDS011;7855;52.210;5.982;2022-09-09T05:36:16;21;;;8;;
15506;SDS011;7855;52.210;5.982;2022-09-09T05:38:30;17;;;7;;
15506;SDS011;7855;52.210;5.982;2022-09-09T05:40:46;15;;;7;;
15506;SDS011;7855;52.210;5.982;2022-09-09T05:42:59;14;;;7;;
15506;SDS011;7855;52.210;5.982;2022-09-09T05:45:13;24;;;7;;
15506;SDS011;7855;52.210;5.982;2022-09-09T05:47:28;17;;;7;;
15506;SDS011;7855;52.210;5.982;2022-09-09T05:49:42;18;;;7;;
15506;SDS011;7855;52.210;5.982;2022-09-09T05:51:56;15;;;7;;
15506;SDS011;7855;52.210;5.982;2022-09-09T05:54:11;16;;;7;;
15506;SDS011;7855;52.210;5.982;2022-09-09T05:56:26;12;;;6;;
15506;SDS011;7855;52.210;5.982;2022-09-09T05:58:40;14;;;6;;
15506;SDS011;7855;52.210;5.982;2022-09-09T06:00:59;15;;;6;;
15506;SDS011;7855;52.210;5.982;2022-09-09T06:03:09;21;;;7;;
15506;SDS011;7855;52.210;5.982;2022-09-09T06:05:23;15;;;7;;
15506;SDS011;7855;52.210;5.982;2022-09-09T06:07:38;19;;;7;;
15506;SDS011;7855;52.210;5.982;2022-09-09T06:09:52;22;;;9;;
15506;SDS011;7855;52.210;5.982;2022-09-09T06:12:07;15;;;7;;
15506;SDS011;7855;52.210;5.982;2022-09-09T06:14:21;16;;;8;;
15506;SDS011;7855;52.210;5.982;2022-09-09T06:16:35;19;;;8;;
15506;SDS011;7855;52.210;5.982;2022-09-09T06:18:50;19;;;7;;
15506;SDS011;7855;52.210;5.982;2022-09-09T06:21:05;17;;;7;;
15506;SDS011;7855;52.210;5.982;2022-09-09T06:23:19;16;;;6;;
15506;SDS011;7855;52.210;5.982;2022-09-09T06:25:33;19;;;7;;
15506;SDS011;7855;52.210;5.982;2022-09-09T06:27:48;13;;;7;;
15506;SDS011;7855;52.210;5.982;2022-09-09T06:30:05;22;;;7;;
15506;SDS011;7855;52.210;5.982;2022-09-09T06:32:17;21;;;8;;
15506;SDS011;7855;52.210;5.982;2022-09-09T06:34:30;18;;;6;;
15506;SDS011;7855;52.210;5.982;2022-09-09T06:36:44;19;;;6;;
15506;SDS011;7855;52.210;5.982;2022-09-09T06:38:59;13;;;6;;
15506;SDS011;7855;52.210;5.982;2022-09-09T06:41:14;12;;;4;;
15506;SDS011;7855;52.210;5.982;2022-09-09T06:43:28;14;;;5;;
15506;SDS011;7855;52.210;5.982;2022-09-09T06:45:42;12;;;5;;
15506;SDS011;7855;52.210;5.982;2022-09-09T06:47:57;15;;;5;;
15506;SDS011;7855;52.210;5.982;2022-09-09T06:50:11;19;;;6;;
15506;SDS011;7855;52.210;5.982;2022-09-09T06:52:26;18;;;4;;
15506;SDS011;7855;52.210;5.982;2022-09-09T06:54:40;10;;;3;;
15506;SDS011;7855;52.210;5.982;2022-09-09T06:56:55;21;;;5;;
15506;SDS011;7855;52.210;5.982;2022-09-09T06:59:09;10;;;4;;
15506;SDS011;7855;52.210;5.982;2022-09-09T07:01:23;11;;;3;;
15506;SDS011;7855;52.210;5.982;2022-09-09T07:03:38;12;;;4;;
15506;SDS011;7855;52.210;5.982;2022-09-09T07:05:54;15;;;4;;
15506;SDS011;7855;52.210;5.982;2022-09-09T07:08:06;17;;;4;;
15506;SDS011;7855;52.210;5.982;2022-09-09T07:10:21;15;;;3;;
15506;SDS011;7855;52.210;5.982;2022-09-09T07:12:36;12;;;4;;
15506;SDS011;7855;52.210;5.982;2022-09-09T07:14:50;11;;;3;;
15506;SDS011;7855;52.210;5.982;2022-09-09T07:17:05;9;;;3;;
15506;SDS011;7855;52.210;5.982;2022-09-09T07:19:19;10;;;2;;
15506;SDS011;7855;52.210;5.982;2022-09-09T07:21:34;11;;;2;;
15506;SDS011;7855;52.210;5.982;2022-09-09T07:23:48;11;;;3;;
15506;SDS011;7855;52.210;5.982;2022-09-09T07:26:06;11;;;2;;
15506;SDS011;7855;52.210;5.982;2022-09-09T07:28:16;10;;;2;;
15506;SDS011;7855;52.210;5.982;2022-09-09T07:30:31;8;;;2;;
15506;SDS011;7855;52.210;5.982;2022-09-09T07:32:45;15;;;2;;
15506;SDS011;7855;52.210;5.982;2022-09-09T07:35:00;13;;;3;;
15506;SDS011;7855;52.210;5.982;2022-09-09T07:37:15;10;;;2;;
15506;SDS011;7855;52.210;5.982;2022-09-09T07:39:29;7;;;2;;
15506;SDS011;7855;52.210;5.982;2022-09-09T07:41:44;8;;;1;;
15506;SDS011;7855;52.210;5.982;2022-09-09T07:43:58;14;;;2;;
15506;SDS011;7855;52.210;5.982;2022-09-09T07:46:13;16;;;2;;
15506;SDS011;7855;52.210;5.982;2022-09-09T07:48:27;10;;;2;;
15506;SDS011;7855;52.210;5.982;2022-09-09T07:50:41;12;;;2;;
15506;SDS011;7855;52.210;5.982;2022-09-09T07:52:55;15;;;2;;
15506;SDS011;7855;52.210;5.982;2022-09-09T07:55:10;13;;;3;;
15506;SDS011;7855;52.210;5.982;2022-09-09T07:57:25;13;;;2;;
15506;SDS011;7855;52.210;5.982;2022-09-09T07:59:39;15;;;3;;
15506;SDS011;7855;52.210;5.982;2022-09-09T08:01:53;13;;;2;;
15506;SDS011;7855;52.210;5.982;2022-09-09T08:04:09;9;;;1;;
15506;SDS011;7855;52.210;5.982;2022-09-09T08:06:22;10;;;1;;
15506;SDS011;7855;52.210;5.982;2022-09-09T08:08:37;13;;;2;;
15506;SDS011;7855;52.210;5.982;2022-09-09T08:10:51;14;;;2;;
15506;SDS011;7855;52.210;5.982;2022-09-09T08:13:06;11;;;2;;
15506;SDS011;7855;52.210;5.982;2022-09-09T08:15:20;20;;;2;;
15506;SDS011;7855;52.210;5.982;2022-09-09T08:17:34;13;;;2;;
15506;SDS011;7855;52.210;5.982;2022-09-09T08:19:49;13;;;2;;
15506;SDS011;7855;52.210;5.982;2022-09-09T08:22:04;13;;;1;;
15506;SDS011;7855;52.210;5.982;2022-09-09T08:24:18;13;;;1;;
15506;SDS011;7855;52.210;5.982;2022-09-09T08:26:33;11;;;2;;
15506;SDS011;7855;52.210;5.982;2022-09-09T08:28:47;12;;;2;;
15506;SDS011;7855;52.210;5.982;2022-09-09T08:31:05;10;;;2;;
15506;SDS011;7855;52.210;5.982;2022-09-09T08:33:16;13;;;1;;
15506;SDS011;7855;52.210;5.982;2022-09-09T08:35:30;14;;;2;;
15506;SDS011;7855;52.210;5.982;2022-09-09T08:37:44;9;;;2;;
15506;SDS011;7855;52.210;5.982;2022-09-09T08:39:59;11;;;1;;
15506;SDS011;7855;52.210;5.982;2022-09-09T08:42:17;13;;;1;;
15506;SDS011;7855;52.210;5.982;2022-09-09T08:44:31;9;;;2;;
15506;SDS011;7855;52.210;5.982;2022-09-09T08:46:45;9;;;1;;
15506;SDS011;7855;52.210;5.982;2022-09-09T08:48:58;11;;;2;;
15506;SDS011;7855;52.210;5.982;2022-09-09T08:51:12;8;;;1;;
15506;SDS011;7855;52.210;5.982;2022-09-09T08:53:26;12;;;2;;
15506;SDS011;7855;52.210;5.982;2022-09-09T08:55:41;12;;;3;;
15506;SDS011;7855;52.210;5.982;2022-09-09T08:57:55;15;;;2;;
15506;SDS011;7855;52.210;5.982;2022-09-09T09:00:09;14;;;2;;
15506;SDS011;7855;52.210;5.982;2022-09-09T09:02:23;13;;;2;;
15506;SDS011;7855;52.210;5.982;2022-09-09T09:04:42;10;;;2;;
15506;SDS011;7855;52.210;5.982;2022-09-09T09:06:54;10;;;2;;
15506;SDS011;7855;52.210;5.982;2022-09-09T09:09:08;8;;;1;;
15506;SDS011;7855;52.210;5.982;2022-09-09T09:11:20;10;;;2;;
15506;SDS011;7855;52.210;5.982;2022-09-09T09:13:37;10;;;2;;
15506;SDS011;7855;52.210;5.982;2022-09-09T09:15:52;18;;;2;;
15506;SDS011;7855;52.210;5.982;2022-09-09T09:18:04;9;;;1;;
15506;SDS011;7855;52.210;5.982;2022-09-09T09:20:20;17;;;3;;
15506;SDS011;7855;52.210;5.982;2022-09-09T09:22:34;10;;;2;;
15506;SDS011;7855;52.210;5.982;2022-09-09T09:24:50;10;;;1;;
15506;SDS011;7855;52.210;5.982;2022-09-09T09:27:08;14;;;2;;
15506;SDS011;7855;52.210;5.982;2022-09-09T09:29:17;11;;;2;;
15506;SDS011;7855;52.210;5.982;2022-09-09T09:31:31;12;;;2;;
15506;SDS011;7855;52.210;5.982;2022-09-09T09:33:46;15;;;2;;
15506;SDS011;7855;52.210;5.982;2022-09-09T09:35:59;7;;;1;;
15506;SDS011;7855;52.210;5.982;2022-09-09T09:38:16;9;;;1;;
15506;SDS011;7855;52.210;5.982;2022-09-09T09:40:28;16;;;2;;
15506;SDS011;7855;52.210;5.982;2022-09-09T09:42:48;13;;;2;;
15506;SDS011;7855;52.210;5.982;2022-09-09T09:45:06;8;;;1;;
15506;SDS011;7855;52.210;5.982;2022-09-09T09:47:13;12;;;1;;
15506;SDS011;7855;52.210;5.982;2022-09-09T09:49:26;8;;;1;;
15506;SDS011;7855;52.210;5.982;2022-09-09T09:51:41;8;;;1;;
15506;SDS011;7855;52.210;5.982;2022-09-09T09:54:02;8;;;1;;
15506;SDS011;7855;52.210;5.982;2022-09-09T09:56:10;10;;;1;;
15506;SDS011;7855;52.210;5.982;2022-09-09T09:58:24;9;;;1;;
15506;SDS011;7855;52.210;5.982;2022-09-09T10:00:38;9;;;1;;
15506;SDS011;7855;52.210;5.982;2022-09-09T10:02:52;13;;;1;;
15506;SDS011;7855;52.210;5.982;2022-09-09T10:05:12;9;;;1;;
15506;SDS011;7855;52.210;5.982;2022-09-09T10:07:22;13;;;2;;
15506;SDS011;7855;52.210;5.982;2022-09-09T10:09:36;9;;;1;;
15506;SDS011;7855;52.210;5.982;2022-09-09T10:11:53;10;;;1;;
15506;SDS011;7855;52.210;5.982;2022-09-09T10:14:07;8;;;1;;
15506;SDS011;7855;52.210;5.982;2022-09-09T10:16:23;6;;;1;;
15506;SDS011;7855;52.210;5.982;2022-09-09T10:18:36;14;;;1;;
15506;SDS011;7855;52.210;5.982;2022-09-09T10:20:51;9;;;1;;
15506;SDS011;7855;52.210;5.982;2022-09-09T10:23:06;11;;;1;;
15506;SDS011;7855;52.210;5.982;2022-09-09T10:25:27;13;;;2;;
15506;SDS011;7855;52.210;5.982;2022-09-09T10:27:33;12;;;2;;
15506;SDS011;7855;52.210;5.982;2022-09-09T10:29:50;12;;;1;;
15506;SDS011;7855;52.210;5.982;2022-09-09T10:32:05;7;;;1;;
15506;SDS011;7855;52.210;5.982;2022-09-09T10:34:18;9;;;1;;
15506;SDS011;7855;52.210;5.982;2022-09-09T10:36:30;9;;;1;;
15506;SDS011;7855;52.210;5.982;2022-09-09T10:38:45;9;;;3;;
15506;SDS011;7855;52.210;5.982;2022-09-09T10:41:00;11;;;1;;
15506;SDS011;7855;52.210;5.982;2022-09-09T10:43:17;8;;;1;;
15506;SDS011;7855;52.210;5.982;2022-09-09T10:45:28;11;;;1;;
15506;SDS011;7855;52.210;5.982;2022-09-09T10:47:45;8;;;1;;
15506;SDS011;7855;52.210;5.982;2022-09-09T10:50:00;6;;;1;;
15506;SDS011;7855;52.210;5.982;2022-09-09T10:52:13;9;;;1;;
15506;SDS011;7855;52.210;5.982;2022-09-09T10:54:29;8;;;1;;
15506;SDS011;7855;52.210;5.982;2022-09-09T10:56:40;9;;;1;;
15506;SDS011;7855;52.210;5.982;2022-09-09T10:58:55;11;;;2;;
15506;SDS011;7855;52.210;5.982;2022-09-09T11:01:10;10;;;2;;
15506;SDS011;7855;52.210;5.982;2022-09-09T11:03:25;11;;;1;;
15506;SDS011;7855;52.210;5.982;2022-09-09T11:05:39;7;;;1;;
15506;SDS011;7855;52.210;5.982;2022-09-09T11:07:53;7;;;1;;
15506;SDS011;7855;52.210;5.982;2022-09-09T11:10:12;7;;;1;;
15506;SDS011;7855;52.210;5.982;2022-09-09T11:12:21;10;;;1;;
15506;SDS011;7855;52.210;5.982;2022-09-09T11:14:36;11;;;1;;
15506;SDS011;7855;52.210;5.982;2022-09-09T11:16:50;7;;;1;;
15506;SDS011;7855;52.210;5.982;2022-09-09T11:19:08;7;;;1;;
15506;SDS011;7855;52.210;5.982;2022-09-09T11:21:19;10;;;1;;
15506;SDS011;7855;52.210;5.982;2022-09-09T11:23:33;11;;;1;;
15506;SDS011;7855;52.210;5.982;2022-09-09T11:25:48;9;;;1;;
15506;SDS011;7855;52.210;5.982;2022-09-09T11:28:05;8;;;1;;
15506;SDS011;7855;52.210;5.982;2022-09-09T11:30:17;9;;;1;;
15506;SDS011;7855;52.210;5.982;2022-09-09T11:32:34;14;;;2;;
15506;SDS011;7855;52.210;5.982;2022-09-09T11:34:49;9;;;1;;
15506;SDS011;7855;52.210;5.982;2022-09-09T11:37:06;9;;;1;;
15506;SDS011;7855;52.210;5.982;2022-09-09T11:39:20;18;;;2;;
15506;SDS011;7855;52.210;5.982;2022-09-09T11:41:32;13;;;1;;
15506;SDS011;7855;52.210;5.982;2022-09-09T11:43:42;8;;;1;;
15506;SDS011;7855;52.210;5.982;2022-09-09T11:45:57;8;;;1;;
15506;SDS011;7855;52.210;5.982;2022-09-09T11:48:22;8;;;1;;
15506;SDS011;7855;52.210;5.982;2022-09-09T11:50:29;11;;;2;;
15506;SDS011;7855;52.210;5.982;2022-09-09T11:52:40;9;;;1;;
15506;SDS011;7855;52.210;5.982;2022-09-09T11:54:54;16;;;2;;
15506;SDS011;7855;52.210;5.982;2022-09-09T11:57:14;11;;;2;;
15506;SDS011;7855;52.210;5.982;2022-09-09T11:59:23;13;;;2;;
15506;SDS011;7855;52.210;5.982;2022-09-09T12:01:37;12;;;2;;
15506;SDS011;7855;52.210;5.982;2022-09-09T12:03:52;12;;;2;;
15506;SDS011;7855;52.210;5.982;2022-09-09T12:06:09;12;;;3;;
15506;SDS011;7855;52.210;5.982;2022-09-09T12:08:22;11;;;2;;
15506;SDS011;7855;52.210;5.982;2022-09-09T12:10:36;12;;;3;;
15506;SDS011;7855;52.210;5.982;2022-09-09T12:12:49;9;;;2;;
15506;SDS011;7855;52.210;5.982;2022-09-09T12:15:17;13;;;2;;
15506;SDS011;7855;52.210;5.982;2022-09-09T12:17:19;11;;;2;;
15506;SDS011;7855;52.210;5.982;2022-09-09T12:19:32;9;;;2;;
15506;SDS011;7855;52.210;5.982;2022-09-09T12:21:49;12;;;1;;
15506;SDS011;7855;52.210;5.982;2022-09-09T12:24:03;8;;;1;;
15506;SDS011;7855;52.210;5.982;2022-09-09T12:26:20;11;;;2;;
15506;SDS011;7855;52.210;5.982;2022-09-09T12:28:38;10;;;1;;
15506;SDS011;7855;52.210;5.982;2022-09-09T12:30:46;11;;;2;;
15506;SDS011;7855;52.210;5.982;2022-09-09T12:33:00;8;;;1;;
15506;SDS011;7855;52.210;5.982;2022-09-09T12:35:15;18;;;1;;
15506;SDS011;7855;52.210;5.982;2022-09-09T12:37:29;9;;;1;;
15506;SDS011;7855;52.210;5.982;2022-09-09T12:39:43;6;;;1;;
15506;SDS011;7855;52.210;5.982;2022-09-09T12:41:57;11;;;1;;
15506;SDS011;7855;52.210;5.982;2022-09-09T12:44:11;9;;;1;;
15506;SDS011;7855;52.210;5.982;2022-09-09T12:46:30;7;;;0;;
15506;SDS011;7855;52.210;5.982;2022-09-09T12:48:40;6;;;1;;
15506;SDS011;7855;52.210;5.982;2022-09-09T12:50:55;8;;;1;;
15506;SDS011;7855;52.210;5.982;2022-09-09T12:53:10;8;;;1;;
15506;SDS011;7855;52.210;5.982;2022-09-09T12:55:24;11;;;1;;
15506;SDS011;7855;52.210;5.982;2022-09-09T12:57:38;7;;;1;;
15506;SDS011;7855;52.210;5.982;2022-09-09T13:00:03;8;;;2;;
15506;SDS011;7855;52.210;5.982;2022-09-09T13:02:14;6;;;1;;
15506;SDS011;7855;52.210;5.982;2022-09-09T13:04:21;6;;;1;;
15506;SDS011;7855;52.210;5.982;2022-09-09T13:06:36;7;;;1;;
15506;SDS011;7855;52.210;5.982;2022-09-09T13:08:50;9;;;1;;
15506;SDS011;7855;52.210;5.982;2022-09-09T13:11:06;12;;;1;;
15506;SDS011;7855;52.210;5.982;2022-09-09T13:13:20;7;;;1;;
15506;SDS011;7855;52.210;5.982;2022-09-09T13:15:33;7;;;1;;
15506;SDS011;7855;52.210;5.982;2022-09-09T13:17:49;6;;;1;;
15506;SDS011;7855;52.210;5.982;2022-09-09T13:20:03;8;;;1;;
15506;SDS011;7855;52.210;5.982;2022-09-09T13:22:20;7;;;1;;
15506;SDS011;7855;52.210;5.982;2022-09-09T13:24:32;7;;;1;;
15506;SDS011;7855;52.210;5.982;2022-09-09T13:26:53;8;;;1;;
15506;SDS011;7855;52.210;5.982;2022-09-09T13:29:08;6;;;1;;
15506;SDS011;7855;52.210;5.982;2022-09-09T13:31:19;6;;;1;;
15506;SDS011;7855;52.210;5.982;2022-09-09T13:33:30;7;;;1;;
15506;SDS011;7855;52.210;5.982;2022-09-09T13:35:45;7;;;1;;
15506;SDS011;7855;52.210;5.982;2022-09-09T13:37:58;11;;;1;;
15506;SDS011;7855;52.210;5.982;2022-09-09T13:40:16;6;;;0;;
15506;SDS011;7855;52.210;5.982;2022-09-09T13:42:27;8;;;1;;
15506;SDS011;7855;52.210;5.982;2022-09-09T13:44:41;7;;;1;;
15506;SDS011;7855;52.210;5.982;2022-09-09T13:46:59;8;;;1;;
15506;SDS011;7855;52.210;5.982;2022-09-09T13:49:19;11;;;1;;
15506;SDS011;7855;52.210;5.982;2022-09-09T13:51:29;5;;;0;;
15506;SDS011;7855;52.210;5.982;2022-09-09T13:53:39;7;;;0;;
15506;SDS011;7855;52.210;5.982;2022-09-09T13:55:53;8;;;1;;
15506;SDS011;7855;52.210;5.982;2022-09-09T13:58:14;5;;;0;;
15506;SDS011;7855;52.210;5.982;2022-09-09T14:00:23;7;;;0;;
15506;SDS011;7855;52.210;5.982;2022-09-09T14:02:37;6;;;1;;
15506;SDS011;7855;52.210;5.982;2022-09-09T14:04:50;7;;;1;;
15506;SDS011;7855;52.210;5.982;2022-09-09T14:07:05;10;;;1;;
15506;SDS011;7855;52.210;5.982;2022-09-09T14:09:19;8;;;1;;
15506;SDS011;7855;52.210;5.982;2022-09-09T14:11:34;9;;;1;;
15506;SDS011;7855;52.210;5.982;2022-09-09T14:13:48;8;;;1;;
15506;SDS011;7855;52.210;5.982;2022-09-09T14:16:05;5;;;0;;
15506;SDS011;7855;52.210;5.982;2022-09-09T14:18:17;5;;;0;;
15506;SDS011;7855;52.210;5.982;2022-09-09T14:20:32;6;;;1;;
15506;SDS011;7855;52.210;5.982;2022-09-09T14:22:46;8;;;1;;
15506;SDS011;7855;52.210;5.982;2022-09-09T14:25:00;8;;;1;;
15506;SDS011;7855;52.210;5.982;2022-09-09T14:27:15;8;;;1;;
15506;SDS011;7855;52.210;5.982;2022-09-09T14:29:29;8;;;1;;
15506;SDS011;7855;52.210;5.982;2022-09-09T14:31:44;9;;;1;;
15506;SDS011;7855;52.210;5.982;2022-09-09T14:33:58;6;;;1;;
15506;SDS011;7855;52.210;5.982;2022-09-09T14:36:12;6;;;1;;
15506;SDS011;7855;52.210;5.982;2022-09-09T14:38:28;9;;;1;;
15506;SDS011;7855;52.210;5.982;2022-09-09T14:40:44;8;;;1;;
15506;SDS011;7855;52.210;5.982;2022-09-09T14:42:56;12;;;1;;
15506;SDS011;7855;52.210;5.982;2022-09-09T14:45:11;8;;;1;;
15506;SDS011;7855;52.210;5.982;2022-09-09T14:47:25;10;;;1;;
15506;SDS011;7855;52.210;5.982;2022-09-09T14:49:39;6;;;1;;
15506;SDS011;7855;52.210;5.982;2022-09-09T14:51:54;8;;;1;;
15506;SDS011;7855;52.210;5.982;2022-09-09T14:54:08;8;;;1;;
15506;SDS011;7855;52.210;5.982;2022-09-09T14:56:24;7;;;1;;